ESSL

Linköping City Airport

Linköping, Sweden
METAR ESSL 220620Z AUTO 31004KT 280V360 9999 NCD 08/01 Q1016
Observed Flight Rules
Apr-22 @ 06:20 UTC (38 minutes ago) Visual Flight Rules
Wind Visibility Clouds
310° at 4 knots 10,000+ meters
  • Clear skies
Temperatures Readings
Current 8°C / 46°F
Dewpoint 1°C / 34°F
Humidity 62%
Altimeter 30" Hg
Pressure 1016 hPa
Elevation 52
METAR ESSL 220620Z AUTO 31004KT 280V360 9999 NCD 08/01 Q1016
Observed Flight Rules
Apr-22 @ 06:20 UTC
(38 minutes ago)
VFR
Wind Visibility
310° at 4 knots 10,000+ meters
Clouds
  • Clear skies
Temperature Dewpoint
8°C / 46°F 1°C / 34°F
Humidity Altimeter Pressure
62% 30" Hg 1016 hPa